Lookout Store, Arkansas
Current Conditions -  °F | °C
As of 6:15 AM on Friday 31 Oct 2014 (Local Time) from KSGT Reporting Station
Clear Clear  
Wind Chill: 52°   Ceiling: Unl
Heat Index: 52°   Visibility: 10mi
Dew Point: 43°   Wind: 12mph
Humidity: 71%   Direction: 320°NW
Pressure: 30.07"   Gusts: NA
Location:  34.6163°N, 91.3754°W
Report Text: KSGT 311115Z AUTO 32010KT 10SM CLR 11/06 A3007 RMK AO1
Loading
Personal Weather Stations






























Interactive Weather Map
Tropical Storm Tracking
New forecast layout! Learn more

10-Day Weather Forecast

Advertisements
Track Severe Weather on mobile